Time;durP1;ratioP1;P1;durP2;ratioP2;P2;SDS_P1;SDS_P2;PMS_P1;PMS_P2;Temp;Humidity;BMP_temperature;BMP_pressure;BME280_temperature;BME280_humidity;BME280_pressure;Samples;Min_cycle;Max_cycle;Signal;HPM_P1;HPM_P2
2023/05/04 00:01:14;;;;;;;0.20;0.20;;;;;;;19.54;42.73;101870.66;5100360;27;20050;-44
2023/05/04 00:03:40;;;;;;;0.20;0.20;;;;;;;19.53;42.61;101867.06;5095652;28;20047;-44
2023/05/04 00:06:06;;;;;;;0.20;0.20;;;;;;;19.53;42.88;101858.78;5095829;28;20047;-45
2023/05/04 00:08:32;;;;;;;0.20;0.20;;;;;;;19.54;42.87;101867.91;5081257;28;20431;-44
2023/05/04 00:10:57;;;;;;;0.20;0.20;;;;;;;19.53;42.86;101863.47;5100628;28;20054;-44
2023/05/04 00:13:23;;;;;;;0.20;0.20;;;;;;;19.53;42.71;101856.03;5095682;28;20048;-44
2023/05/04 00:15:49;;;;;;;0.20;0.20;;;;;;;19.53;42.93;101855.19;5095379;28;20051;-44
2023/05/04 00:18:14;;;;;;;0.20;0.20;;;;;;;19.53;42.66;101858.78;5097119;28;20057;-45
2023/05/04 00:20:40;;;;;;;0.20;0.20;;;;;;;19.53;42.83;101861.53;5116183;28;20043;-44
2023/05/04 00:23:06;;;;;;;0.20;0.20;;;;;;;19.53;42.76;101857.94;5115834;28;20556;-44
2023/05/04 00:25:31;;;;;;;0.20;0.20;;;;;;;19.53;42.61;101855.19;5116317;27;20053;-45
2023/05/04 00:27:57;;;;;;;0.20;0.20;;;;;;;19.53;42.60;101857.94;5115594;28;20047;-48
2023/05/04 00:30:23;;;;;;;0.20;0.20;;;;;;;19.51;42.57;101852.66;5115481;27;20039;-45
2023/05/04 00:32:48;;;;;;;0.20;0.20;;;;;;;19.53;42.88;101849.66;5116308;28;20047;-45
2023/05/04 00:35:14;;;;;;;0.20;0.20;;;;;;;19.53;42.86;101846.91;5115612;28;20047;-45
2023/05/04 00:37:42;;;;;;;0.20;0.20;;;;;;;19.52;42.69;101843.31;5116047;28;20043;-45
2023/05/04 00:40:08;;;;;;;0.20;0.20;;;;;;;19.53;42.55;101841.38;5116057;28;20043;-45
2023/05/04 00:42:34;;;;;;;0.20;0.20;;;;;;;19.52;42.83;101846.06;5114251;28;20078;-47
2023/05/04 00:45:00;;;;;;;0.20;0.20;;;;;;;19.53;42.79;101844.13;5115915;27;20055;-45
2023/05/04 00:47:26;;;;;;;0.20;0.20;;;;;;;19.53;42.75;101841.38;5115935;28;20039;-44
2023/05/04 00:49:51;;;;;;;0.20;0.20;;;;;;;19.52;42.64;101839.72;5109725;28;20500;-46
2023/05/04 00:52:18;;;;;;;0.20;0.20;;;;;;;19.51;42.92;101830.56;5095207;28;20717;-44
2023/05/04 00:54:45;;;;;;;0.20;0.20;;;;;;;19.52;42.86;101831.44;5094853;28;20048;-43
2023/05/04 00:57:11;;;;;;;0.20;0.20;;;;;;;19.52;42.77;101820.38;5095140;28;20040;-44
2023/05/04 00:59:38;;;;;;;0.20;0.20;;;;;;;19.52;42.98;101823.13;5092165;27;20082;-44
2023/05/04 01:02:03;;;;;;;0.20;0.20;;;;;;;19.51;42.74;101811.22;5095311;28;20075;-45
2023/05/04 01:04:29;;;;;;;0.20;0.20;;;;;;;19.51;42.94;101811.22;5094936;28;20062;-47
2023/05/04 01:07:18;;;;;;;0.30;0.30;;;;;;;19.51;42.77;101810.41;5095048;28;20043;-48
2023/05/04 01:09:51;;;;;;;0.20;0.20;;;;;;;19.51;42.89;101816.75;5072193;28;20210;-47
2023/05/04 01:12:21;;;;;;;0.20;0.20;;;;;;;19.51;42.78;101816.75;5097111;28;20047;-44
2023/05/04 01:14:47;;;;;;;0.20;0.20;;;;;;;19.50;42.81;101806.81;5096475;28;20422;-46
2023/05/04 01:17:13;;;;;;;0.20;0.20;;;;;;;19.51;42.52;101813.16;5114628;28;20043;-46
2023/05/04 01:19:38;;;;;;;0.20;0.20;;;;;;;19.51;42.61;101808.47;5114969;28;20047;-45
2023/05/04 01:22:04;;;;;;;0.20;0.20;;;;;;;19.50;42.68;101804.03;5115554;28;20047;-46
2023/05/04 01:24:30;;;;;;;0.20;0.20;;;;;;;19.51;42.81;101804.88;5113643;28;20039;-44
2023/05/04 01:27:03;;;;;;;0.20;0.20;;;;;;;19.50;42.82;101795.75;5094542;28;20221;-45
2023/05/04 01:29:52;;;;;;;0.20;0.20;;;;;;;19.50;42.86;101792.16;5084181;28;20646;-48
2023/05/04 01:32:18;;;;;;;0.22;0.22;;;;;;;19.50;42.87;101792.16;5100053;28;20062;-45
2023/05/04 01:34:44;;;;;;;0.20;0.20;;;;;;;19.50;42.88;101801.28;5095685;28;20527;-49
2023/05/04 01:37:09;;;;;;;0.20;0.20;;;;;;;19.50;42.62;101789.41;5114934;28;20414;-47
2023/05/04 01:39:35;;;;;;;0.20;0.20;;;;;;;19.50;42.62;101793.00;5113932;28;20538;-44
2023/05/04 01:42:01;;;;;;;0.20;0.20;;;;;;;19.50;42.73;101790.22;5114631;27;20519;-45
2023/05/04 01:44:27;;;;;;;0.20;0.20;;;;;;;19.50;42.79;101798.50;5114608;27;20451;-47
2023/05/04 01:46:52;;;;;;;0.20;0.20;;;;;;;19.50;42.67;101804.03;5114362;28;20077;-44
2023/05/04 01:49:18;;;;;;;0.20;0.20;;;;;;;19.50;42.61;101798.50;5113216;28;20043;-45
2023/05/04 01:51:45;;;;;;;0.20;0.20;;;;;;;19.51;42.72;101807.63;5113670;28;20405;-44
2023/05/04 01:54:11;;;;;;;0.20;0.20;;;;;;;19.50;42.62;101805.97;5114704;28;20400;-47
2023/05/04 01:56:37;;;;;;;0.20;0.20;;;;;;;19.49;42.71;101805.16;5114647;28;20054;-44
2023/05/04 01:59:02;;;;;;;0.20;0.20;;;;;;;19.49;42.72;101802.38;5088656;27;20047;-47
2023/05/04 02:01:28;;;;;;;0.20;0.20;;;;;;;19.50;42.68;101803.22;5112628;28;20035;-44
2023/05/04 02:03:54;;;;;;;0.20;0.20;;;;;;;19.49;42.89;101807.91;5114637;28;20058;-45
2023/05/04 02:06:20;;;;;;;0.20;0.20;;;;;;;19.50;42.87;101795.75;5095206;28;20374;-45
2023/05/04 02:08:45;;;;;;;0.20;0.20;;;;;;;19.49;42.59;101801.56;5114192;28;20047;-46
2023/05/04 02:11:13;;;;;;;0.20;0.20;;;;;;;19.49;42.58;101799.63;5097639;28;20040;-46
2023/05/04 02:13:39;;;;;;;0.20;0.20;;;;;;;19.48;42.95;101792.44;5094046;28;20075;-46
2023/05/04 02:16:05;;;;;;;0.20;0.20;;;;;;;19.49;42.71;101791.31;5093892;28;20127;-45
2023/05/04 02:18:31;;;;;;;0.20;0.20;;;;;;;19.49;42.80;101790.50;5075656;28;20268;-44
2023/05/04 02:20:56;;;;;;;0.20;0.20;;;;;;;19.49;42.97;101787.72;5098342;28;20058;-47
2023/05/04 02:23:22;;;;;;;0.20;0.20;;;;;;;19.49;42.93;101782.22;5093649;28;20287;-43
2023/05/04 02:25:48;;;;;;;0.20;0.20;;;;;;;19.49;42.72;101794.09;5093540;28;20132;-44
2023/05/04 02:28:13;;;;;;;0.20;0.20;;;;;;;19.48;42.94;101786.91;5093679;28;20120;-44
2023/05/04 02:30:41;;;;;;;0.20;0.20;;;;;;;19.49;42.65;101782.22;5109439;28;20043;-44
2023/05/04 02:33:06;;;;;;;0.20;0.20;;;;;;;19.48;42.82;101784.16;5082834;28;20415;-47
2023/05/04 02:35:32;;;;;;;0.20;0.20;;;;;;;19.48;42.57;101783.31;5074523;28;20491;-44
2023/05/04 02:37:58;;;;;;;0.20;0.20;;;;;;;19.49;42.65;101782.22;5074812;28;20039;-48
2023/05/04 02:40:24;;;;;;;0.20;0.20;;;;;;;19.48;42.73;101780.56;5088175;28;20071;-45
2023/05/04 02:42:50;;;;;;;0.20;0.20;;;;;;;19.48;42.66;101781.38;5113518;28;20055;-45
2023/05/04 02:45:15;;;;;;;0.20;0.20;;;;;;;19.48;42.89;101777.78;5113328;28;20221;-47
2023/05/04 02:47:41;;;;;;;0.20;0.20;;;;;;;19.49;42.92;101777.50;5113378;28;20112;-47
2023/05/04 02:50:07;;;;;;;0.20;0.20;;;;;;;19.48;42.66;101775.84;5112555;28;20046;-45
2023/05/04 02:52:33;;;;;;;0.20;0.20;;;;;;;19.47;42.73;101776.09;5112953;28;20040;-44
2023/05/04 02:55:00;;;;;;;0.20;0.20;;;;;;;19.48;42.95;101769.50;5113309;28;20043;-44
2023/05/04 02:57:25;;;;;;;0.20;0.20;;;;;;;19.48;42.84;101777.78;5113483;28;20123;-45
2023/05/04 02:59:51;;;;;;;0.20;0.20;;;;;;;19.47;42.64;101774.19;5111231;28;20043;-48
2023/05/04 03:02:17;;;;;;;0.20;0.20;;;;;;;19.48;42.88;101781.38;5113334;28;20040;-44
2023/05/04 03:04:42;;;;;;;0.20;0.20;;;;;;;19.47;42.70;101779.72;5113511;28;20058;-45
2023/05/04 03:07:08;;;;;;;0.20;0.20;;;;;;;19.48;43.14;101777.78;5113624;28;20054;-46
2023/05/04 03:09:34;;;;;;;0.20;0.20;;;;;;;19.48;43.03;101784.16;5112693;28;20061;-45
2023/05/04 03:12:01;;;;;;;0.20;0.20;;;;;;;19.48;42.90;101778.63;5094370;28;20514;-44
2023/05/04 03:14:27;;;;;;;0.20;0.20;;;;;;;19.47;42.78;101774.19;5112381;28;20139;-44
2023/05/04 03:16:52;;;;;;;0.20;0.20;;;;;;;19.48;42.88;101773.09;5113470;27;20050;-46
2023/05/04 03:19:20;;;;;;;0.20;0.20;;;;;;;19.48;42.71;101772.25;5112709;28;20047;-47
2023/05/04 03:21:46;;;;;;;0.20;0.20;;;;;;;19.48;42.96;101780.56;5113472;28;20892;-44
2023/05/04 03:24:13;;;;;;;0.20;0.20;;;;;;;19.47;43.13;101774.19;5113735;28;20098;-45
2023/05/04 03:26:39;;;;;;;0.20;0.20;;;;;;;19.47;42.87;101768.66;5093919;28;20201;-44
2023/05/04 03:29:04;;;;;;;0.20;0.20;;;;;;;19.48;42.90;101766.75;5109240;27;20164;-44
2023/05/04 03:31:30;;;;;;;0.20;0.20;;;;;;;19.47;42.78;101763.16;5093563;28;20598;-45
2023/05/04 03:33:56;;;;;;;0.20;0.20;;;;;;;19.47;42.95;101757.63;5093428;27;20134;-45
2023/05/04 03:36:21;;;;;;;0.20;0.20;;;;;;;19.48;42.80;101752.94;5096371;28;20058;-45
2023/05/04 03:38:47;;;;;;;0.20;0.20;;;;;;;19.48;42.86;101747.41;5096651;28;20384;-46
2023/05/04 03:41:13;;;;;;;0.20;0.20;;;;;;;19.47;43.08;101746.56;5115291;28;20485;-46
2023/05/04 03:43:38;;;;;;;0.20;0.20;;;;;;;19.48;43.04;101739.13;5116297;28;20063;-45
2023/05/04 03:46:04;;;;;;;0.20;0.20;;;;;;;19.47;43.03;101742.94;5115719;28;20402;-47
2023/05/04 03:48:30;;;;;;;0.20;0.20;;;;;;;19.46;42.82;101736.59;5117007;27;20100;-44
2023/05/04 03:50:56;;;;;;;0.20;0.20;;;;;;;19.45;42.87;101737.69;5101497;28;20483;-44
2023/05/04 03:53:22;;;;;;;0.20;0.20;;;;;;;19.46;42.91;101742.13;5102336;28;20083;-45
2023/05/04 03:55:47;;;;;;;0.20;0.20;;;;;;;19.47;42.73;101743.81;5114211;28;20048;-46
2023/05/04 03:58:13;;;;;;;0.20;0.20;;;;;;;19.47;42.78;101746.56;5116932;28;20499;-45
2023/05/04 04:00:39;;;;;;;0.20;0.20;;;;;;;19.47;42.97;101752.09;5103117;28;20310;-47
2023/05/04 04:03:05;;;;;;;0.20;0.20;;;;;;;19.47;43.04;101754.00;5116033;28;20058;-44
2023/05/04 04:05:30;;;;;;;0.20;0.20;;;;;;;19.47;42.76;101748.47;5115528;28;20047;-44
2023/05/04 04:07:56;;;;;;;0.20;0.20;;;;;;;19.46;43.04;101755.09;5116657;28;20051;-44
2023/05/04 04:10:22;;;;;;;0.20;0.20;;;;;;;19.46;43.09;101747.63;5105920;28;20512;-46
2023/05/04 04:12:48;;;;;;;0.20;0.20;;;;;;;19.46;42.87;101746.81;5077127;28;20036;-46
2023/05/04 04:15:14;;;;;;;0.20;0.20;;;;;;;19.46;42.98;101746.81;5094778;28;20287;-48
2023/05/04 04:17:40;;;;;;;0.20;0.20;;;;;;;19.46;42.76;101746.81;5095242;28;20415;-46
2023/05/04 04:20:06;;;;;;;0.20;0.20;;;;;;;19.46;42.89;101741.28;5096539;28;20040;-46
2023/05/04 04:22:32;;;;;;;0.20;0.20;;;;;;;19.46;42.98;101749.56;5077096;28;20059;-45
2023/05/04 04:24:58;;;;;;;0.20;0.20;;;;;;;19.46;42.92;101744.88;5078322;28;20455;-47
2023/05/04 04:27:24;;;;;;;0.20;0.20;;;;;;;19.45;43.06;101745.97;5095166;28;20043;-45
2023/05/04 04:29:49;;;;;;;0.20;0.20;;;;;;;19.46;42.73;101749.56;5115180;27;20523;-43
2023/05/04 04:32:15;;;;;;;0.20;0.20;;;;;;;19.46;42.73;101752.34;5099353;27;20411;-44
2023/05/04 04:34:41;;;;;;;0.20;0.20;;;;;;;19.45;42.84;101748.75;5115440;28;20047;-44
2023/05/04 04:37:06;;;;;;;0.20;0.20;;;;;;;19.47;42.90;101760.38;5115683;28;20136;-46
2023/05/04 04:39:32;;;;;;;0.20;0.20;;;;;;;19.48;42.89;101753.75;5112663;28;20062;-44
2023/05/04 04:41:58;;;;;;;0.20;0.20;;;;;;;19.47;42.92;101752.09;5094923;28;20043;-47
2023/05/04 04:44:24;;;;;;;0.20;0.20;;;;;;;19.47;43.08;101752.09;5094671;27;20099;-46
2023/05/04 04:46:49;;;;;;;0.20;0.20;;;;;;;19.49;42.86;101755.41;5095096;28;20039;-45
2023/05/04 04:49:16;;;;;;;0.20;0.20;;;;;;;19.48;42.65;101752.94;5114056;27;20058;-45
2023/05/04 04:51:42;;;;;;;0.20;0.20;;;;;;;19.47;42.76;101746.56;5110768;28;20051;-45
2023/05/04 04:54:08;;;;;;;0.20;0.20;;;;;;;19.47;42.70;101751.22;5115325;28;20043;-45
2023/05/04 04:56:35;;;;;;;0.20;0.20;;;;;;;19.47;42.78;101754.00;5114128;28;20095;-45
2023/05/04 04:59:00;;;;;;;0.20;0.20;;;;;;;19.45;42.84;101747.91;5093424;28;20043;-45
2023/05/04 05:01:26;;;;;;;0.20;0.20;;;;;;;19.45;42.84;101743.22;5107406;28;20046;-44
2023/05/04 05:03:52;;;;;;;0.20;0.20;;;;;;;19.46;42.57;101747.63;5111321;28;20058;-48
2023/05/04 05:06:17;;;;;;;0.20;0.20;;;;;;;19.46;42.46;101744.88;5113916;28;20062;-43
2023/05/04 05:08:43;;;;;;;0.20;0.20;;;;;;;19.47;42.73;101751.22;5114666;28;20047;-44
2023/05/04 05:11:10;;;;;;;0.20;0.20;;;;;;;19.46;42.54;101744.88;5096388;28;20047;-45
2023/05/04 05:13:35;;;;;;;0.20;0.20;;;;;;;19.46;42.94;101746.81;5093077;28;20462;-44
2023/05/04 05:16:01;;;;;;;0.20;0.20;;;;;;;19.45;42.93;101743.22;5109129;28;20039;-45
2023/05/04 05:18:28;;;;;;;0.20;0.20;;;;;;;19.46;42.89;101736.59;5101475;28;20115;-45
2023/05/04 05:20:55;;;;;;;0.20;0.20;;;;;;;19.43;42.85;101737.13;5099092;28;20039;-45
2023/05/04 05:23:20;;;;;;;0.20;0.20;;;;;;;19.22;42.85;101740.81;5100144;28;20043;-46
2023/05/04 05:25:46;;;;;;;0.20;0.20;;;;;;;19.17;43.51;101746.25;5083486;28;20424;-45
2023/05/04 05:28:12;;;;;;;0.20;0.20;;;;;;;19.25;43.81;101745.78;5110350;27;20051;-47
2023/05/04 05:30:38;;;;;;;0.20;0.20;;;;;;;19.37;44.05;101738.16;5081613;28;20130;-45
2023/05/04 05:33:04;;;;;;;0.20;0.20;;;;;;;19.43;43.54;101736.28;5108164;28;20600;-44
2023/05/04 05:35:30;;;;;;;0.20;0.20;;;;;;;19.47;44.10;101729.13;5084011;27;20462;-45
2023/05/04 05:37:56;;;;;;;0.20;0.20;;;;;;;19.49;43.62;101724.19;5087077;28;20546;-47
2023/05/04 05:40:21;;;;;;;0.20;0.20;;;;;;;19.47;43.49;101730.00;5102385;28;20053;-46
2023/05/04 05:42:48;;;;;;;0.20;0.20;;;;;;;19.52;43.72;101723.69;5104845;28;20057;-45
2023/05/04 05:45:13;;;;;;;0.20;0.20;;;;;;;19.54;43.35;101729.75;5082986;27;20077;-45
2023/05/04 05:47:39;;;;;;;0.20;0.20;;;;;;;19.54;43.55;101727.81;5078856;28;20078;-46
2023/05/04 05:50:06;;;;;;;0.20;0.20;;;;;;;19.53;43.43;101731.69;5093771;27;20396;-44
2023/05/04 05:52:32;;;;;;;0.28;0.28;;;;;;;19.54;43.54;101729.75;5082030;28;20058;-44
2023/05/04 05:54:57;;;;;;;0.20;0.20;;;;;;;19.54;43.10;101730.59;5107530;28;20043;-45
2023/05/04 05:57:26;;;;;;;0.20;0.20;;;;;;;19.54;43.40;101733.34;5086912;27;20133;-45
2023/05/04 05:59:51;;;;;;;0.20;0.20;;;;;;;19.55;43.31;101729.47;5092316;28;20050;-45
2023/05/04 06:02:17;;;;;;;0.20;0.20;;;;;;;19.54;42.94;101727.00;5078052;27;20050;-45
2023/05/04 06:04:44;;;;;;;0.20;0.20;;;;;;;19.55;43.11;101729.47;5090129;28;20048;-44
2023/05/04 06:07:10;;;;;;;0.20;0.20;;;;;;;19.55;42.81;101735.00;5100139;28;20047;-43
2023/05/04 06:09:35;;;;;;;0.20;0.20;;;;;;;19.54;42.69;101733.34;5092626;28;20047;-47
2023/05/04 06:12:02;;;;;;;0.20;0.20;;;;;;;19.58;42.98;101730.91;5094623;27;20795;-50
2023/05/04 06:14:27;;;;;;;0.20;0.20;;;;;;;19.58;42.45;101736.41;5094971;28;20051;-44
2023/05/04 06:16:53;;;;;;;0.20;0.20;;;;;;;19.57;41.78;101725.66;5103591;28;20035;-44
2023/05/04 06:19:19;;;;;;;0.20;0.20;;;;;;;19.58;42.51;101722.59;5082419;28;20053;-44
2023/05/04 06:21:47;;;;;;;0.20;0.20;;;;;;;19.58;42.31;101713.50;5102497;27;20096;-44
2023/05/04 06:24:13;;;;;;;0.20;0.20;;;;;;;19.57;42.16;101717.34;5104797;28;20432;-44
2023/05/04 06:26:38;;;;;;;0.20;0.20;;;;;;;19.59;42.13;101723.44;5099285;28;20490;-43
2023/05/04 06:29:04;;;;;;;0.20;0.20;;;;;;;19.58;42.38;101717.09;5102748;27;20043;-44
2023/05/04 06:31:30;;;;;;;0.20;0.20;;;;;;;19.59;42.17;101706.84;5091356;28;20282;-46
2023/05/04 06:33:56;;;;;;;0.20;0.20;;;;;;;19.59;42.13;101710.44;5096050;28;20364;-43
2023/05/04 06:36:24;;;;;;;0.20;0.20;;;;;;;19.59;42.49;101710.44;5103978;28;20550;-45
2023/05/04 06:38:50;;;;;;;0.20;0.20;;;;;;;19.60;42.27;101714.88;5098353;28;20051;-49
2023/05/04 06:41:15;;;;;;;0.20;0.20;;;;;;;19.60;42.29;101712.09;5100243;28;20046;-44
2023/05/04 06:43:41;;;;;;;0.20;0.20;;;;;;;19.60;42.38;101701.06;5099418;27;20043;-44
2023/05/04 06:46:07;;;;;;;0.20;0.20;;;;;;;19.62;42.77;101709.13;5093456;27;20051;-44
2023/05/04 06:48:33;;;;;;;0.20;0.20;;;;;;;19.62;42.41;101706.38;5095620;28;20550;-45
2023/05/04 06:50:58;;;;;;;0.30;0.30;;;;;;;19.63;42.60;101705.25;5095092;27;20089;-45
2023/05/04 06:53:28;;;;;;;0.20;0.20;;;;;;;19.65;42.15;101703.09;5087897;28;20138;-44
2023/05/04 06:55:53;;;;;;;0.20;0.20;;;;;;;19.63;42.19;101706.09;5093940;28;20055;-44
2023/05/04 06:58:20;;;;;;;0.20;0.20;;;;;;;19.65;42.17;101705.84;5090008;27;20055;-43
2023/05/04 07:00:46;;;;;;;0.20;0.20;;;;;;;19.64;42.09;101699.47;5086960;28;20039;-45
2023/05/04 07:03:12;;;;;;;0.20;0.20;;;;;;;19.63;42.59;101705.25;5081017;28;20391;-45
2023/05/04 07:05:38;;;;;;;0.20;0.20;;;;;;;19.65;42.41;101692.03;5074217;28;20734;-43
2023/05/04 07:08:03;;;;;;;0.20;0.20;;;;;;;19.64;42.27;101691.16;5069472;27;20361;-45
2023/05/04 07:10:29;;;;;;;0.20;0.20;;;;;;;19.64;42.16;101690.34;5086346;28;20525;-44
2023/05/04 07:12:55;;;;;;;0.30;0.30;;;;;;;19.64;42.01;101693.09;5076454;27;20078;-44
2023/05/04 07:15:21;;;;;;;0.20;0.20;;;;;;;19.64;42.45;101684.81;5091632;28;20085;-45
2023/05/04 07:17:47;;;;;;;0.20;0.20;;;;;;;19.63;42.13;101683.16;5097495;28;20095;-44
2023/05/04 07:20:14;;;;;;;0.20;0.20;;;;;;;19.64;42.52;101684.81;5080809;28;20375;-44
2023/05/04 07:22:40;;;;;;;0.20;0.20;;;;;;;19.63;41.79;101677.63;5082858;27;20405;-47
2023/05/04 07:25:07;;;;;;;0.20;0.20;;;;;;;19.62;42.08;101681.50;5102884;28;20460;-43
2023/05/04 07:27:34;;;;;;;0.20;0.20;;;;;;;19.61;42.72;101680.69;5103288;27;20042;-43
2023/05/04 07:30:01;;;;;;;0.20;0.20;;;;;;;19.60;43.13;101676.19;5084805;28;20054;-57
2023/05/04 07:32:27;;;;;;;0.20;0.20;;;;;;;19.66;42.42;101686.22;5105748;27;20138;-46
2023/05/04 07:34:53;;;;;;;0.20;0.20;;;;;;;19.66;42.08;101675.19;5097870;27;20053;-47
2023/05/04 07:37:18;;;;;;;0.20;0.20;;;;;;;19.65;42.45;101676.28;5104414;27;20046;-48
2023/05/04 07:39:44;;;;;;;0.20;0.20;;;;;;;19.64;42.91;101677.34;5107124;28;20063;-46
2023/05/04 07:42:10;;;;;;;0.30;0.30;;;;;;;19.64;42.45;101669.06;5106667;27;20070;-51
2023/05/04 07:44:36;;;;;;;0.20;0.20;;;;;;;19.64;43.00;101668.25;5107880;28;20059;-44
2023/05/04 07:47:02;;;;;;;0.20;0.20;;;;;;;19.64;42.97;101673.75;5107960;28;20051;-46
2023/05/04 07:49:27;;;;;;;0.20;0.20;;;;;;;19.63;42.35;101667.41;5103707;28;20061;-45
2023/05/04 07:51:53;;;;;;;0.20;0.20;;;;;;;19.64;43.28;101668.25;5098545;27;20058;-47
2023/05/04 07:54:19;;;;;;;0.20;0.20;;;;;;;19.64;42.51;101657.19;5098183;27;20429;-44
2023/05/04 07:56:47;;;;;;;0.20;0.20;;;;;;;19.64;42.35;101658.00;5104169;27;20045;-45
2023/05/04 07:59:16;;;;;;;0.20;0.20;;;;;;;19.65;42.86;101662.47;5100862;27;20418;-46
2023/05/04 08:01:42;;;;;;;0.20;0.20;;;;;;;19.64;42.46;101660.78;5085194;28;20462;-45
2023/05/04 08:04:09;;;;;;;0.20;0.20;;;;;;;19.65;42.36;101659.69;5094961;28;20531;-46
2023/05/04 08:06:38;;;;;;;0.20;0.20;;;;;;;19.65;42.40;101658.88;5091467;28;20047;-45
2023/05/04 08:09:05;;;;;;;0.20;0.20;;;;;;;19.67;42.50;101653.91;5071909;28;20613;-46
2023/05/04 08:11:33;;;;;;;0.20;0.20;;;;;;;19.69;42.79;101654.44;5090713;28;20043;-44
2023/05/04 08:14:00;;;;;;;0.20;0.20;;;;;;;19.69;42.76;101657.22;5094868;27;20544;-44
2023/05/04 08:16:27;;;;;;;0.20;0.20;;;;;;;19.67;42.82;101645.59;5096818;28;20051;-44
2023/05/04 08:18:52;;;;;;;0.20;0.20;;;;;;;19.66;42.50;101644.78;5099148;27;20168;-46
2023/05/04 08:21:18;;;;;;;0.20;0.20;;;;;;;19.67;42.48;101640.91;5097280;28;20072;-44
2023/05/04 08:23:44;;;;;;;0.20;0.20;;;;;;;19.68;42.31;101642.56;5099338;28;20074;-46
2023/05/04 08:26:09;;;;;;;0.20;0.20;;;;;;;19.69;42.67;101638.72;5101041;27;20220;-45
2023/05/04 08:28:37;;;;;;;0.20;0.20;;;;;;;19.69;42.55;101638.72;5103101;27;20047;-44
2023/05/04 08:31:02;;;;;;;0.20;0.20;;;;;;;19.69;42.57;101635.09;5080417;27;20475;-46
2023/05/04 08:33:29;;;;;;;0.20;0.20;;;;;;;19.71;42.67;101636.50;5090989;27;20096;-44
2023/05/04 08:35:54;;;;;;;0.20;0.20;;;;;;;19.73;42.93;101630.72;5087131;27;20043;-45
2023/05/04 08:38:20;;;;;;;0.20;0.20;;;;;;;19.71;42.82;101632.94;5089979;27;21143;-45
2023/05/04 08:40:46;;;;;;;0.20;0.20;;;;;;;19.71;42.96;101638.44;5089541;28;20157;-43
2023/05/04 08:43:14;;;;;;;0.20;0.20;;;;;;;19.70;43.00;101631.28;5100793;28;20457;-45
2023/05/04 08:45:40;;;;;;;0.25;0.25;;;;;;;19.70;43.00;101628.50;5104041;28;20491;-45
2023/05/04 08:48:06;;;;;;;0.20;0.20;;;;;;;19.69;42.93;101618.53;5105700;28;20483;-45
2023/05/04 08:50:35;;;;;;;0.20;0.20;;;;;;;19.72;42.78;101612.47;5106389;28;20053;-44
2023/05/04 08:53:02;;;;;;;0.10;0.10;;;;;;;19.70;43.05;101617.44;5052474;28;20048;-46
2023/05/04 08:55:31;;;;;;;0.20;0.20;;;;;;;19.69;42.62;101624.06;5084314;27;20035;-46
2023/05/04 08:57:58;;;;;;;0.25;0.25;;;;;;;19.68;43.07;101623.22;5097359;28;20400;-46
2023/05/04 09:00:25;;;;;;;0.20;0.20;;;;;;;19.68;42.94;101619.63;5106750;28;20050;-47
2023/05/04 09:02:51;;;;;;;0.30;0.30;;;;;;;19.67;42.55;101624.31;5104042;27;20047;-44
2023/05/04 09:05:17;;;;;;;0.30;0.30;;;;;;;19.67;42.38;101620.75;5105459;28;20036;-48
2023/05/04 09:07:43;;;;;;;0.20;0.20;;;;;;;19.66;43.00;101625.44;5106826;28;20115;-46
2023/05/04 09:10:10;;;;;;;0.20;0.20;;;;;;;19.67;43.18;101612.44;5099364;27;20047;-49
2023/05/04 09:12:36;;;;;;;0.20;0.20;;;;;;;19.67;42.98;101617.97;5102417;27;20043;-45
2023/05/04 09:15:16;;;;;;;0.20;0.20;;;;;;;19.67;43.08;101609.69;5107844;28;20373;-45
2023/05/04 09:17:42;;;;;;;0.20;0.20;;;;;;;19.67;43.29;101606.91;5106859;27;20401;-46
2023/05/04 09:20:24;;;;;;;0.20;0.20;;;;;;;19.67;43.20;101602.22;5085869;28;20139;-44
2023/05/04 09:23:06;;;;;;;0.20;0.20;;;;;;;19.67;43.11;101593.94;5103757;28;20086;-44
2023/05/04 09:25:34;;;;;;;0.20;0.20;;;;;;;19.67;43.24;101593.94;5066536;28;20138;-47
2023/05/04 09:27:59;;;;;;;0.20;0.20;;;;;;;19.67;43.34;101587.56;5086519;28;20043;-44
2023/05/04 09:30:25;;;;;;;0.20;0.20;;;;;;;19.68;43.21;101592.00;5104896;27;20092;-43
2023/05/04 09:32:51;;;;;;;0.20;0.20;;;;;;;19.68;42.63;101580.94;5094785;27;20040;-44
2023/05/04 09:35:27;;;;;;;0.20;0.20;;;;;;;19.67;43.17;101574.59;5098349;27;20086;-44
2023/05/04 09:37:59;;;;;;;0.20;0.20;;;;;;;19.66;42.65;101577.63;5072463;28;20434;-45
2023/05/04 09:40:30;;;;;;;0.20;0.20;;;;;;;19.65;43.27;101571.28;5068093;28;20254;-44
2023/05/04 09:42:56;;;;;;;0.20;0.20;;;;;;;19.70;42.79;101568.53;5070551;28;20120;-44
2023/05/04 09:45:22;;;;;;;0.20;0.20;;;;;;;19.71;43.18;101572.97;5084381;27;20075;-45
2023/05/04 09:47:51;;;;;;;0.20;0.20;;;;;;;19.70;43.06;101568.53;5094748;28;20051;-47
2023/05/04 09:50:21;;;;;;;0.20;0.20;;;;;;;19.70;43.30;101568.53;5081456;28;20045;-44
2023/05/04 09:52:47;;;;;;;0.20;0.20;;;;;;;19.69;43.38;101566.03;5099037;28;20069;-44
2023/05/04 09:55:15;;;;;;;0.28;0.28;;;;;;;19.71;43.21;101558.31;5076289;28;20147;-43
2023/05/04 09:57:42;;;;;;;0.20;0.20;;;;;;;19.72;43.55;101557.19;5081192;28;20055;-45
2023/05/04 10:00:11;;;;;;;0.20;0.20;;;;;;;19.71;43.20;101561.06;5067045;28;20051;-46
2023/05/04 10:02:37;;;;;;;0.20;0.20;;;;;;;19.72;43.12;101558.03;5104105;28;20074;-47
2023/05/04 10:05:04;;;;;;;0.20;0.20;;;;;;;19.73;42.95;101558.84;5083184;27;20053;-44
2023/05/04 10:07:30;;;;;;;0.20;0.20;;;;;;;19.86;42.12;101554.78;5100305;28;20043;-43
2023/05/04 10:09:58;;;;;;;0.30;0.30;;;;;;;19.75;39.76;101546.44;5097935;28;20121;-44
2023/05/04 10:12:24;;;;;;;0.28;0.28;;;;;;;19.80;41.84;101543.69;5061905;28;20047;-47
2023/05/04 10:14:49;;;;;;;0.20;0.20;;;;;;;19.77;42.41;101547.03;5107815;28;20073;-49
2023/05/04 10:17:40;;;;;;;0.20;0.20;;;;;;;19.77;42.60;101537.88;5098773;27;20053;-47
2023/05/04 10:20:46;;;;;;;0.30;0.30;;;;;;;19.76;42.79;101541.75;5090113;28;20122;-44
2023/05/04 10:23:35;;;;;;;0.20;0.20;;;;;;;19.74;42.63;101538.44;5085057;28;20069;-44
2023/05/04 10:26:25;;;;;;;0.20;0.20;;;;;;;19.75;42.42;101535.38;5085099;28;20047;-43
2023/05/04 10:29:10;;;;;;;0.20;0.20;;;;;;;19.75;42.79;101531.81;5091209;27;20074;-45
2023/05/04 10:31:37;;;;;;;0.20;0.20;;;;;;;19.76;43.00;101528.75;5104207;27;20318;-45
2023/05/04 10:34:04;;;;;;;0.20;0.20;;;;;;;19.76;43.22;101514.09;5106890;28;20050;-45
2023/05/04 10:36:38;;;;;;;0.20;0.20;;;;;;;19.81;42.85;101525.19;5105699;27;20096;-45
2023/05/04 10:39:15;;;;;;;0.20;0.20;;;;;;;19.80;43.04;101518.00;5097342;27;20051;-46
2023/05/04 10:41:41;;;;;;;0.30;0.30;;;;;;;19.79;43.11;101503.34;5096213;28;20043;-44
2023/05/04 10:44:08;;;;;;;0.20;0.20;;;;;;;19.79;42.97;101510.81;5098427;27;20077;-44
2023/05/04 10:46:34;;;;;;;0.20;0.20;;;;;;;19.81;42.87;101505.84;5095377;28;20534;-46
2023/05/04 10:49:00;;;;;;;0.20;0.20;;;;;;;19.80;42.93;101496.72;5105288;28;21040;-45
2023/05/04 10:51:26;;;;;;;0.20;0.20;;;;;;;19.80;42.97;101490.34;5100799;27;20455;-47
2023/05/04 10:54:17;;;;;;;0.20;0.20;;;;;;;19.81;42.74;101494.78;5100331;28;20066;-44
2023/05/04 10:56:43;;;;;;;0.20;0.20;;;;;;;19.80;42.63;101485.66;5090862;28;20047;-44
2023/05/04 10:59:09;;;;;;;0.20;0.20;;;;;;;19.80;42.94;101482.06;5095386;28;20058;-45
2023/05/04 11:01:43;;;;;;;0.20;0.20;;;;;;;19.80;42.52;101477.38;5096980;28;20035;-46
2023/05/04 11:04:18;;;;;;;0.20;0.20;;;;;;;19.82;42.81;101470.72;5100925;28;20058;-47
2023/05/04 11:06:54;;;;;;;0.20;0.20;;;;;;;19.82;42.83;101470.72;5077738;28;20058;-45
2023/05/04 11:09:20;;;;;;;0.20;0.20;;;;;;;19.80;42.60;101460.78;5079084;28;20052;-48
2023/05/04 11:11:46;;;;;;;0.20;0.20;;;;;;;19.82;42.64;101460.53;5101062;28;20068;-45
2023/05/04 11:14:23;;;;;;;0.20;0.20;;;;;;;19.84;42.43;101454.72;5095457;27;20047;-43
2023/05/04 11:16:49;;;;;;;0.20;0.20;;;;;;;19.86;42.00;101450.59;5106555;27;20115;-45
2023/05/04 11:19:16;;;;;;;0.20;0.20;;;;;;;19.85;42.61;101448.09;5101756;27;20050;-43
2023/05/04 11:21:42;;;;;;;0.20;0.20;;;;;;;19.85;42.28;101440.63;5100010;28;20104;-44
2023/05/04 11:24:08;;;;;;;0.20;0.20;;;;;;;19.85;42.28;101428.72;5105545;28;20055;-46